createdAt,value
2019-01-26T00:02:53.278Z,25.20
2019-01-26T00:07:55.318Z,23.00
2019-01-26T00:12:57.230Z,25.67
2019-01-26T00:17:59.157Z,26.23
2019-01-26T00:23:01.200Z,24.97
2019-01-26T00:28:03.251Z,23.67
2019-01-26T00:33:05.360Z,22.37
2019-01-26T00:38:08.394Z,24.37
2019-01-26T00:43:10.406Z,23.87
2019-01-26T00:48:12.312Z,24.10
2019-01-26T00:53:14.265Z,22.77
2019-01-26T00:58:16.390Z,23.07
2019-01-26T01:03:18.501Z,23.37
2019-01-26T01:08:20.875Z,23.37
2019-01-26T01:13:22.875Z,24.37
2019-01-26T01:18:24.825Z,24.90
2019-01-26T01:23:26.756Z,26.37
2019-01-26T01:28:28.716Z,26.17
2019-01-26T01:33:30.754Z,25.30
2019-01-26T01:38:32.770Z,23.13
2019-01-26T01:43:34.767Z,22.93
2019-01-26T01:48:37.146Z,23.57
2019-01-26T01:53:39.085Z,21.20
2019-01-26T01:58:41.154Z,20.87
2019-01-26T02:03:43.115Z,21.73
2019-01-26T02:08:45.049Z,23.07
2019-01-26T02:13:46.969Z,22.37
2019-01-26T02:18:49.002Z,19.47
2019-01-26T02:23:51.324Z,23.33
2019-01-26T02:28:53.636Z,22.67
2019-01-26T02:33:55.588Z,22.53
2019-01-26T02:38:57.517Z,21.27
2019-01-26T02:43:59.431Z,21.10
2019-01-26T02:49:01.356Z,20.50
2019-01-26T02:54:03.482Z,21.13
2019-01-26T02:59:05.413Z,20.47
2019-01-26T03:04:07.587Z,19.83
2019-01-26T03:09:09.831Z,19.23
2019-01-26T03:14:11.842Z,18.90
2019-01-26T03:19:13.894Z,21.27
2019-01-26T03:24:15.934Z,17.37
2019-01-26T03:29:17.849Z,16.33
2019-01-26T03:34:19.783Z,16.83
2019-01-26T03:39:21.709Z,14.23
2019-01-26T03:44:23.621Z,12.57
2019-01-26T03:49:25.662Z,12.27
2019-01-26T03:54:27.789Z,12.60
2019-01-26T03:59:32.110Z,11.23
2019-01-26T04:04:34.387Z,10.80
2019-01-26T04:09:42.524Z,10.93
2019-01-26T04:14:44.561Z,10.53
2019-01-26T04:19:46.494Z,9.83
2019-01-26T04:24:48.408Z,9.83
2019-01-26T04:29:50.421Z,9.23
2019-01-26T04:34:52.481Z,7.93
2019-01-26T04:39:54.498Z,9.83
2019-01-26T04:44:56.514Z,9.10
2019-01-26T04:49:58.498Z,9.30
2019-01-26T04:55:00.467Z,9.30
2019-01-26T05:00:04.719Z,9.17
2019-01-26T05:05:07.038Z,8.73
2019-01-26T05:10:15.146Z,8.77
2019-01-26T05:15:18.985Z,8.87
2019-01-26T05:20:22.621Z,8.47
2019-01-26T05:25:24.626Z,7.63
2019-01-26T05:30:27.971Z,7.93
2019-01-26T05:35:29.931Z,7.60
2019-01-26T05:40:31.945Z,7.33
2019-01-26T05:45:34.100Z,7.90
2019-01-26T05:50:36.089Z,7.63
2019-01-26T05:55:38.119Z,8.20
2019-01-26T06:00:40.059Z,7.93
2019-01-26T06:05:42.020Z,7.73
2019-01-26T06:10:43.936Z,7.10
2019-01-26T06:15:45.845Z,8.20
2019-01-26T06:20:47.756Z,7.77
2019-01-26T06:25:49.884Z,7.83
2019-01-26T06:30:51.802Z,7.73
2019-01-26T06:35:53.740Z,8.00
2019-01-26T06:40:55.856Z,7.57
2019-01-26T06:45:57.788Z,7.97
2019-01-26T06:50:59.672Z,7.83
2019-01-26T06:56:01.701Z,6.63
2019-01-26T07:01:03.770Z,7.87
2019-01-26T07:06:16.758Z,7.50
2019-01-26T07:11:20.095Z,7.53
2019-01-26T07:16:24.191Z,8.27
2019-01-26T07:21:26.213Z,8.20
2019-01-26T07:26:31.081Z,8.33
2019-01-26T07:31:34.223Z,8.77
2019-01-26T07:36:36.553Z,8.77
2019-01-26T07:41:38.657Z,8.40
2019-01-26T07:46:40.775Z,7.80
2019-01-26T07:51:42.672Z,8.23
2019-01-26T07:56:44.918Z,8.23
2019-01-26T08:01:47.074Z,7.97
2019-01-26T08:06:49.501Z,7.20
2019-01-26T08:11:51.648Z,8.17
2019-01-26T08:16:53.563Z,7.47
2019-01-26T08:21:55.726Z,6.73
2019-01-26T08:26:57.934Z,6.53
2019-01-26T08:31:59.834Z,8.03
2019-01-26T08:37:01.909Z,8.57
2019-01-26T08:42:04.212Z,6.63
2019-01-26T08:47:06.137Z,7.97
2019-01-26T08:52:08.185Z,6.97
2019-01-26T08:57:11.291Z,7.07
2019-01-26T09:02:25.493Z,7.00
2019-01-26T09:07:27.653Z,6.60
2019-01-26T09:12:30.244Z,9.20
2019-01-26T09:17:32.258Z,7.77
2019-01-26T09:22:34.178Z,7.27
2019-01-26T09:27:36.402Z,5.43
2019-01-26T09:32:38.435Z,4.77
2019-01-26T09:37:40.556Z,6.33
2019-01-26T09:42:42.719Z,6.13
2019-01-26T09:47:44.854Z,5.37
2019-01-26T09:52:46.877Z,6.30
2019-01-26T09:57:49.004Z,6.53
2019-01-26T10:02:51.132Z,5.77
2019-01-26T10:07:53.238Z,8.33
2019-01-26T10:12:55.155Z,6.07
2019-01-26T10:17:57.380Z,8.90
2019-01-26T10:22:59.379Z,7.70
2019-01-26T10:28:01.544Z,7.70
2019-01-26T10:33:04.805Z,7.70
2019-01-26T10:38:06.705Z,7.63
2019-01-26T10:43:08.750Z,6.80
2019-01-26T10:48:10.956Z,6.27
2019-01-26T10:53:13.218Z,5.57
2019-01-26T10:58:15.301Z,5.10
2019-01-26T11:03:17.524Z,5.60
2019-01-26T11:08:19.551Z,5.17
2019-01-26T11:13:21.588Z,4.60
2019-01-26T11:18:23.635Z,4.60
2019-01-26T11:23:25.665Z,4.30
2019-01-26T11:28:27.655Z,4.63
2019-01-26T11:33:29.760Z,4.87
2019-01-26T11:38:31.689Z,4.63
2019-01-26T11:43:33.633Z,5.17
2019-01-26T11:48:39.510Z,5.20
2019-01-26T11:53:41.507Z,5.97
2019-01-26T11:58:43.407Z,6.10
2019-01-26T12:03:49.382Z,6.33
2019-01-26T12:08:51.723Z,4.90
2019-01-26T12:13:53.662Z,4.90
2019-01-26T12:18:55.736Z,5.20
2019-01-26T12:23:57.640Z,4.50
2019-01-26T12:28:59.645Z,4.80
2019-01-26T12:34:01.583Z,4.80
2019-01-26T12:39:08.105Z,4.73
2019-01-26T12:44:10.132Z,4.97
2019-01-26T12:49:12.250Z,4.80
2019-01-26T12:54:14.319Z,4.03
2019-01-26T12:59:16.513Z,5.33
2019-01-26T13:04:19.035Z,5.30
2019-01-26T13:09:21.288Z,5.50
2019-01-26T13:14:23.327Z,5.37
2019-01-26T13:19:25.334Z,5.73
2019-01-26T13:24:27.371Z,4.80
2019-01-26T13:29:29.363Z,4.57
2019-01-26T13:34:31.432Z,3.93
2019-01-26T13:39:33.382Z,4.50
2019-01-26T13:44:36.547Z,4.33
2019-01-26T13:49:43.989Z,4.60
2019-01-26T13:54:42.418Z,4.10
2019-01-26T13:59:44.319Z,3.93
2019-01-26T14:04:46.431Z,4.50
2019-01-26T14:09:48.339Z,4.03
2019-01-26T14:14:50.694Z,4.80
2019-01-26T14:19:52.657Z,4.40
2019-01-26T14:24:54.576Z,4.30
2019-01-26T14:29:56.471Z,4.80
2019-01-26T14:34:58.420Z,3.80
2019-01-26T14:40:00.747Z,4.10
2019-01-26T14:45:03.988Z,4.10
2019-01-26T14:50:07.451Z,4.90
2019-01-26T14:55:12.424Z,4.47
2019-01-26T15:00:17.897Z,4.20
2019-01-26T15:05:21.241Z,4.13
2019-01-26T15:10:23.434Z,4.50
2019-01-26T15:15:25.491Z,8.13
2019-01-26T15:20:30.173Z,4.17
2019-01-26T15:25:32.389Z,5.03
2019-01-26T15:30:36.537Z,4.97
2019-01-26T15:35:38.570Z,5.00
2019-01-26T15:40:40.685Z,4.90
2019-01-26T15:45:44.826Z,5.17
2019-01-26T15:50:46.781Z,5.60
2019-01-26T15:55:49.190Z,6.80
2019-01-26T16:00:51.250Z,6.13
2019-01-26T16:05:53.283Z,6.33
2019-01-26T16:10:55.290Z,7.60
2019-01-26T16:15:57.225Z,7.47
2019-01-26T16:20:59.129Z,8.00
2019-01-26T16:26:01.191Z,8.93
2019-01-26T16:31:03.372Z,8.53
2019-01-26T16:36:05.420Z,9.37
2019-01-26T16:41:07.464Z,10.40
2019-01-26T16:46:09.517Z,9.80
2019-01-26T16:51:11.529Z,9.63
2019-01-26T16:56:13.642Z,10.00
2019-01-26T17:01:15.644Z,10.60
2019-01-26T17:06:17.572Z,10.00
2019-01-26T17:11:19.497Z,10.80
2019-01-26T17:16:21.766Z,10.37
2019-01-26T17:21:23.857Z,10.90
2019-01-26T17:26:25.804Z,10.10
2019-01-26T17:31:27.771Z,9.50
2019-01-26T17:36:31.724Z,10.97
2019-01-26T17:41:33.663Z,10.73
2019-01-26T17:46:35.725Z,10.00
2019-01-26T17:51:37.926Z,10.13
2019-01-26T17:56:39.866Z,11.13
2019-01-26T18:01:41.776Z,10.20
2019-01-26T18:06:44.198Z,11.23
2019-01-26T18:11:46.163Z,11.63
2019-01-26T18:16:48.047Z,11.43
2019-01-26T18:21:50.577Z,11.80
2019-01-26T18:26:52.617Z,11.20
2019-01-26T18:31:54.622Z,11.57
2019-01-26T18:36:56.644Z,12.60
2019-01-26T18:41:58.949Z,12.97
2019-01-26T18:47:00.941Z,13.67
2019-01-26T18:52:03.247Z,13.17
2019-01-26T18:57:05.385Z,14.07
2019-01-26T19:02:07.481Z,15.70
2019-01-26T19:07:09.399Z,11.87
2019-01-26T19:12:11.418Z,12.80
2019-01-26T19:17:13.813Z,11.70
2019-01-26T19:22:16.140Z,13.03
2019-01-26T19:27:18.322Z,11.33
2019-01-26T19:32:20.355Z,10.77
2019-01-26T19:37:22.257Z,11.27
2019-01-26T19:42:24.356Z,11.37
2019-01-26T19:47:26.478Z,10.43
2019-01-26T19:52:28.377Z,10.43
2019-01-26T19:57:30.687Z,10.77
2019-01-26T20:02:32.751Z,9.83
2019-01-26T20:07:34.921Z,10.30
2019-01-26T20:12:36.965Z,10.70
2019-01-26T20:17:39.168Z,10.00
2019-01-26T20:22:41.100Z,9.97
2019-01-26T20:27:43.219Z,10.30
2019-01-26T20:32:45.228Z,9.73
2019-01-26T20:37:47.584Z,9.53
2019-01-26T20:42:49.744Z,9.17
2019-01-26T20:47:51.768Z,8.87
2019-01-26T20:52:53.798Z,8.57
2019-01-26T20:57:55.749Z,9.50
2019-01-26T21:02:57.886Z,9.20
2019-01-26T21:07:59.832Z,10.30
2019-01-26T21:13:01.788Z,8.93
2019-01-26T21:18:03.857Z,8.53
2019-01-26T21:23:06.084Z,9.27
2019-01-26T21:28:08.217Z,9.23
2019-01-26T21:33:10.111Z,8.73
2019-01-26T21:38:12.106Z,7.80
2019-01-26T21:43:14.083Z,6.17
2019-01-26T21:48:16.158Z,5.70
2019-01-26T21:53:18.163Z,7.77
2019-01-26T21:58:20.098Z,7.47
2019-01-26T22:03:22.012Z,7.13
2019-01-26T22:08:24.040Z,7.20
2019-01-26T22:13:26.191Z,6.50
2019-01-26T22:18:28.269Z,6.53
2019-01-26T22:23:30.272Z,6.43
2019-01-26T22:28:32.297Z,6.70
2019-01-26T22:33:34.193Z,6.37
2019-01-26T22:38:36.132Z,7.20
2019-01-26T22:43:38.041Z,7.90
2019-01-26T22:48:40.178Z,7.20
2019-01-26T22:53:42.305Z,6.50
2019-01-26T22:58:44.223Z,6.80
2019-01-26T23:04:35.149Z,7.87
2019-01-26T23:09:59.377Z,6.43
2019-01-26T23:15:21.837Z,6.93
2019-01-26T23:20:51.949Z,8.13
2019-01-26T23:26:06.155Z,8.13
2019-01-26T23:31:19.266Z,8.30
2019-01-26T23:36:21.503Z,10.57
2019-01-26T23:41:23.585Z,11.53
2019-01-26T23:46:25.618Z,10.40
2019-01-26T23:51:27.637Z,10.07
2019-01-26T23:56:29.548Z,7.63
